Tehachapi, CA (93581)

3:19 PM PDT on September 02, 2014 (GMT -0700)
Tehachapi Municipal | Change Station
CLOSE
Current Station
Airport
Location: Tehachapi,
Elevation: 3999 ft
Nearby Weather Stations

Elev 3999 ft 35.13 °N, 118.44 °W | Updated 24 minutes ago

Clear
Clear
88 °F
Feels Like 88 °F
N
15
Wind Variable Wind from NNW
Gusts 20 mph

Today
High -- | Low -- °F
--% Chance of Precip.
Yesterday
High -- | Low -- °F
Precip. -- in
6:27 AM 7:19 PM
First Quarter, 55% visible
Pressure 29.95 in
Visibility 10.0 miles
Clouds Clear
Dew Point 37 °F
Humidity 17%
Rainfall 0.00 in
Snow Depth Not available.
UV 8 out of 12
Pollen 9.20 out of 12
Ozone Moderate
PM2.5 Moderate
Flu Activity Not available.
METAR KTSP 022155Z AUTO 33013G17KT 10SM CLR 31/03 A2995 RMK AO2

More Conditions Fewer Conditions

Pressure 29.95 in
Visibility 10.0 miles
Clouds Clear
Dew Point 37 °F
Humidity 17%
Rainfall 0.00 in
Snow Depth Not available.
UV 8 out of 12
Pollen 9.20 out of 12
Ozone Moderate
PM2.5 Moderate
Flu Activity Not available.
METAR KTSP 022155Z AUTO 33013G17KT 10SM CLR 31/03 A2995 RMK AO2

More Conditions Fewer Conditions

10-Day Weather Forecast

Almanac

Astronomy

Sep. 02, 2014 Rise Set
Actual Time 6:27 AM PDT 7:19 PM PDT
Civil Twilight 6:01 AM PDT 7:44 PM PDT
Nautical Twilight 5:30 AM PDT 8:15 PM PDT
Astronomical Twilight 4:59 AM PDT 8:46 PM PDT
Moon 2:00 PM PDT No Moon Set
Length of Visible Light 13h 43m
Length of Day
12h 51m
Tomorrow will be 2m 7s shorter.
First Quarter, 55% of the Moon is Illuminated
Today
First Quarter
Sep 8
Full
Sep 15
Last Quarter
Sep 24
New
Oct 1
First Quarter

Today's Extremes

State Highs State Lows

Community

WunderPhotos

Upload Photos

1,749,782 photos uploaded!

Nearby

Air Quality

  Air Quality AQ Index Pollutant
Yesterday Moderate
OZONE
Yesterday Moderate
PM2.5
Current Moderate
OZONE
Current Moderate
PM2.5
Tuesday Moderate
OZONE
Wednesday Moderate
OZONE
Thursday Moderate
OZONE
Friday Moderate
OZONE
Saturday Moderate
OZONE

Snow Depth

Station Depth Elevation
Leavitt Meadows 0 in 7200 ft
Summit Meadow 0 in 9122 ft
Fallen Leaf 0 in 6300 ft
CSS Lab 1 in 6900 ft
Adin Mountain 0 in 6200 ft

Earthquake Activity

City Distance Mag. Time & Date
No recent earthquake activity has been reported nearby.
Minimum magnitude displayed is 2.5.

Coastal Water Temperatures

Place Temperature
No Stations Reporting

Nearby Weather Stations